TimeEST,TemperatureF,Dew PointF,Humidity,Sea Level PressureIn,VisibilityMPH,Wind Direction,Wind SpeedMPH,Gust SpeedMPH,PrecipitationIn,Events,Conditions,WindDirDegrees,DateUTC
12:15 AM,24.8,21.2,86,30.21,2.5,NNE,11.5,19.6,N/A,,Overcast,30,2012-12-17 05:15:00
12:35 AM,24.8,21.2,86,30.21,2.5,NNE,9.2,17.3,N/A,,Overcast,20,2012-12-17 05:35:00
1:15 AM,24.8,21.2,86,30.21,5.0,NNE,11.5,18.4,0.01,,Overcast,30,2012-12-17 06:15:00
1:35 AM,24.8,21.2,86,30.21,10.0,NNE,10.4,19.6,0.01,,Overcast,30,2012-12-17 06:35:00
1:55 AM,24.8,23.0,93,30.20,10.0,NNE,13.8,18.4,0.01,,Overcast,30,2012-12-17 06:55:00
2:15 AM,24.8,23.0,93,30.20,7.0,NNE,12.7,18.4,N/A,,Overcast,20,2012-12-17 07:15:00
2:55 AM,26.6,24.8,93,30.18,2.0,NE,12.7,17.3,N/A,,Overcast,40,2012-12-17 07:55:00
3:15 AM,26.6,24.8,93,30.18,2.0,NNE,12.7,20.7,N/A,,Overcast,30,2012-12-17 08:15:00
3:35 AM,26.6,24.8,93,30.18,2.5,NE,12.7,18.4,N/A,,Overcast,40,2012-12-17 08:35:00
3:55 AM,26.6,26.6,100,30.16,2.5,NNE,15.0,20.7,N/A,,Overcast,30,2012-12-17 08:55:00
4:15 AM,26.6,24.8,93,30.15,5.0,NE,13.8,17.3,N/A,,Overcast,40,2012-12-17 09:15:00
4:35 AM,26.6,24.8,93,30.15,10.0,NNE,15.0,23.0,N/A,,Overcast,30,2012-12-17 09:35:00
4:55 AM,26.6,24.8,93,30.14,10.0,NE,13.8,20.7,N/A,,Overcast,40,2012-12-17 09:55:00
5:15 AM,26.6,24.8,93,30.14,10.0,NNE,12.7,19.6,N/A,,Overcast,30,2012-12-17 10:15:00
5:35 AM,26.6,24.8,93,30.13,10.0,NNE,13.8,19.6,N/A,,Overcast,30,2012-12-17 10:35:00
5:55 AM,26.6,24.8,93,30.13,10.0,NNE,15.0,19.6,N/A,,Overcast,30,2012-12-17 10:55:00
6:15 AM,28.4,24.8,86,30.14,10.0,NNE,16.1,21.9,N/A,,Overcast,30,2012-12-17 11:15:00
6:35 AM,28.4,24.8,86,30.13,10.0,NNE,16.1,23.0,N/A,,Overcast,30,2012-12-17 11:35:00
6:55 AM,28.4,24.8,86,30.13,4.0,NNE,15.0,19.6,N/A,,Overcast,30,2012-12-17 11:55:00
7:15 AM,28.4,24.8,86,30.13,3.0,NNE,13.8,20.7,N/A,,Overcast,30,2012-12-17 12:15:00
7:35 AM,28.4,24.8,86,30.12,5.0,NNE,12.7,21.9,N/A,,Overcast,30,2012-12-17 12:35:00
7:55 AM,28.4,24.8,86,30.12,2.5,NNE,13.8,23.0,N/A,,Overcast,30,2012-12-17 12:55:00
8:15 AM,28.4,26.6,93,30.13,2.0,NE,11.5,23.0,N/A,,Overcast,40,2012-12-17 13:15:00
8:35 AM,30.2,28.4,93,30.12,1.8,NE,15.0,19.6,N/A,,Overcast,40,2012-12-17 13:35:00
8:55 AM,30.2,28.4,93,30.13,1.5,NE,12.7,20.7,N/A,,Overcast,40,2012-12-17 13:55:00
9:15 AM,30.2,28.4,93,30.13,1.8,NNE,11.5,19.6,N/A,,Overcast,30,2012-12-17 14:15:00
9:35 AM,30.2,28.4,93,30.12,1.8,NE,13.8,20.7,0.01,,Overcast,40,2012-12-17 14:35:00
9:55 AM,30.2,30.2,100,30.12,1.2,NNE,13.8,23.0,0.01,,Overcast,30,2012-12-17 14:55:00
10:15 AM,30.2,30.2,100,30.12,1.5,NE,11.5,17.3,N/A,,Overcast,40,2012-12-17 15:15:00
10:35 AM,30.2,30.2,100,30.10,1.8,NE,13.8,19.6,0.01,,Overcast,40,2012-12-17 15:35:00
10:55 AM,32.0,30.2,93,30.09,1.5,NNE,16.1,20.7,0.01,,Overcast,30,2012-12-17 15:55:00
11:15 AM,32.0,30.2,93,30.09,2.0,NE,12.7,19.6,N/A,,Overcast,40,2012-12-17 16:15:00
11:35 AM,33.8,32.0,93,30.07,5.0,NE,12.7,-,N/A,,Overcast,40,2012-12-17 16:35:00
11:55 AM,33.8,32.0,93,30.07,10.0,NE,11.5,17.3,N/A,,Overcast,40,2012-12-17 16:55:00
12:15 PM,33.8,33.8,100,30.05,10.0,ENE,10.4,18.4,N/A,,Overcast,60,2012-12-17 17:15:00
12:35 PM,37.4,33.8,87,30.05,10.0,ENE,15.0,19.6,N/A,,Overcast,70,2012-12-17 17:35:00
12:55 PM,37.4,33.8,87,30.05,10.0,ENE,13.8,20.7,N/A,,Overcast,70,2012-12-17 17:55:00
1:15 PM,37.4,33.8,87,30.05,10.0,ENE,12.7,-,N/A,,Overcast,70,2012-12-17 18:15:00
1:35 PM,37.4,33.8,87,30.04,10.0,ENE,16.1,21.9,N/A,,Overcast,70,2012-12-17 18:35:00
1:55 PM,37.4,33.8,87,30.04,8.0,East,15.0,24.2,N/A,,Overcast,80,2012-12-17 18:55:00
2:15 PM,37.4,33.8,87,30.04,10.0,ENE,15.0,21.9,N/A,,Overcast,70,2012-12-17 19:15:00
2:35 PM,37.4,33.8,87,30.03,10.0,ENE,17.3,23.0,N/A,,Overcast,70,2012-12-17 19:35:00
2:55 PM,37.4,33.8,87,30.03,10.0,ENE,18.4,23.0,N/A,,Overcast,70,2012-12-17 19:55:00
3:15 PM,37.4,33.8,87,30.03,10.0,East,16.1,25.3,N/A,,Overcast,80,2012-12-17 20:15:00
3:35 PM,37.4,33.8,87,30.03,10.0,ENE,16.1,23.0,N/A,,Overcast,70,2012-12-17 20:35:00
3:55 PM,37.4,33.8,87,30.03,10.0,East,13.8,20.7,N/A,,Overcast,80,2012-12-17 20:55:00
4:15 PM,39.2,35.6,87,30.01,10.0,ENE,17.3,21.9,N/A,,Overcast,70,2012-12-17 21:15:00
4:35 PM,39.2,35.6,87,30.03,10.0,ENE,11.5,-,N/A,,Overcast,60,2012-12-17 21:35:00
7:35 PM,39.2,35.6,87,30.02,10.0,ENE,11.5,-,N/A,,Overcast,60,2012-12-18 00:35:00
8:16 PM,39.2,37.4,93,30.01,9.0,ENE,11.5,18.4,N/A,,Overcast,70,2012-12-18 01:16:00
8:35 PM,39.2,37.4,93,30.01,9.0,ENE,11.5,18.4,N/A,,Overcast,70,2012-12-18 01:35:00
8:55 PM,39.2,37.4,93,29.99,8.0,ENE,15.0,-,N/A,,Overcast,70,2012-12-18 01:55:00
9:15 PM,39.2,39.2,100,30.00,9.0,ENE,13.8,-,N/A,,Overcast,70,2012-12-18 02:15:00
9:35 PM,41.0,39.2,93,29.99,10.0,ENE,13.8,19.6,N/A,,Overcast,70,2012-12-18 02:35:00
9:55 PM,41.0,39.2,93,29.98,10.0,ENE,13.8,-,N/A,,Overcast,70,2012-12-18 02:55:00
10:15 PM,42.8,39.2,87,29.98,10.0,ENE,13.8,19.6,N/A,,Overcast,70,2012-12-18 03:15:00
10:35 PM,42.8,39.2,87,29.97,10.0,ENE,13.8,18.4,N/A,,Overcast,70,2012-12-18 03:35:00
10:55 PM,42.8,39.2,87,29.97,10.0,ENE,12.7,18.4,N/A,,Overcast,70,2012-12-18 03:55:00
11:15 PM,42.8,39.2,87,29.95,8.0,ENE,15.0,18.4,N/A,,Overcast,70,2012-12-18 04:15:00
11:35 PM,42.8,39.2,87,29.93,10.0,ENE,13.8,18.4,N/A,,Overcast,60,2012-12-18 04:35:00
11:55 PM,42.8,39.2,87,29.94,9.0,ENE,13.8,19.6,N/A,,Overcast,70,2012-12-18 04:55:00